Franksville, Wisconsin
Current Conditions -  °F | °C
As of 12:53 AM on Friday 24 Oct 2014 (Local Time) from KRAC Reporting Station
Overcast Overcast  
Wind Chill: 51°   Ceiling: 2100
Heat Index: 51°   Visibility: 9mi
Dew Point: 47°   Wind: 3mph
Humidity: 86%   Direction: 230°SW
Pressure: 30.05"   Gusts: NA
Location:  42.76°N, 87.91°W
Report Text: KRAC 240553Z AUTO 23003KT 9SM OVC021 11/08 A3005 RMK AO2 SLP176 60008 T01060083 10122 20106 401500000 56012
Loading
Personal Weather Stations






























Interactive Weather Map
Tropical Storm Tracking
New forecast layout! Learn more

10-Day Weather Forecast

Advertisements
Track Severe Weather on mobile